ADDS METAR Data INFO
IDs: Format: Raw Decoded Include TAF

Data at: 0929 UTC 17 Oct 2017

KJLN 170853Z AUTO 17004KT 10SM CLR 07/06 A3027 RMK AO2 SLP248 T00720056 58003
KJLN 170753Z AUTO 00000KT 10SM CLR 07/06 A3028 RMK AO2 SLP253 T00720056
KJLN 170653Z AUTO 15004KT 10SM CLR 07/06 A3028 RMK AO2 SLP252 T00670056
KJLN 170553Z AUTO 14004KT 10SM CLR 06/06 A3028 RMK AO2 SLP251 T00560056 10139 20056 402000033 58008
KJLN 170453Z AUTO 00000KT 10SM CLR 08/07 A3030 RMK AO2 SLP258 T00830072
KJLN 170353Z AUTO 11003KT 10SM CLR 08/07 A3030 RMK AO2 SLP260 T00780072
KJLN 170253Z AUTO 00000KT 10SM CLR 09/07 A3030 RMK AO2 SLP261 T00940072 51005
KJLN 170153Z 00000KT 10SM CLR 10/08 A3030 RMK AO2 SLP261 T01000078
KJLN 170053Z 00000KT 10SM CLR 11/07 A3030 RMK AO2 SLP261 T01060072
KJLN 162353Z 00000KT 10SM CLR 14/06 A3029 RMK AO2 SLP257 T01440061 10200 20144 56013
KJLN 162253Z 00000KT 10SM CLR 18/04 A3030 RMK AO2 SLP259 T01830039
KJLN 162153Z VRB03KT 10SM CLR 19/03 A3031 RMK AO2 SLP262 T01940033
KJLN 162053Z 00000KT 10SM CLR 19/03 A3033 RMK AO2 SLP268 T01940033 56031
KJLN 161953Z 00000KT 10SM CLR 19/03 A3035 RMK AO2 SLP276 T01940028
KJLN 161853Z 00000KT 10SM CLR 18/03 A3038 RMK AO2 SLP288 T01780033
KJLN 161753Z 00000KT 10SM CLR 17/03 A3042 RMK AO2 SLP300 T01720028 10178 20033 58007
KJLN 161653Z 18005KT 10SM CLR 17/04 A3044 RMK AO2 SLP306 T01670039
KJLN 161553Z 18005KT 10SM CLR 16/04 A3045 RMK AO2 SLP309 T01560039
KJLN 161453Z 18004KT 10SM CLR 13/06 A3044 RMK AO2 SLP309 T01280061 53007
KJLN 161353Z 00000KT 10SM CLR 08/07 A3044 RMK AO2 SLP308 T00830072
KJLN 161253Z 00000KT 10SM CLR 04/04 A3042 RMK AO2 SLP303 T00390039 $
KJLN 161153Z 00000KT 10SM CLR 03/03 A3042 RMK AO2 SLP303 T00330033 10067 20033 53005 $
KJLN 161053Z 00000KT 10SM CLR 04/04 A3041 RMK AO2 SLP299 T00390039 $
KJLN 160953Z AUTO 00000KT 10SM CLR 04/04 A3041 RMK AO2 SLP297 T00390039 $
KJLN 160853Z AUTO 16003KT 10SM CLR 04/04 A3040 RMK AO2 SLP296 T00440044 51003 $
KJLN 160753Z AUTO 31003KT 10SM CLR 04/04 A3040 RMK AO2 SLP295 T00440044 $
KJLN 160653Z AUTO 00000KT 10SM CLR 05/05 A3040 RMK AO2 SLP294 T00500050 $
KJLN 160553Z AUTO 00000KT 10SM CLR 06/06 A3039 RMK AO2 SLP292 T00610061 10122 20056 401780056 51006 $
KJLN 160453Z AUTO 00000KT 10SM CLR 06/06 A3039 RMK AO2 SLP292 T00610061 $
KJLN 160353Z AUTO 00000KT 10SM CLR 08/07 A3039 RMK AO2 SLP291 T00780067 $
KJLN 160253Z AUTO 00000KT 10SM CLR 09/06 A3038 RMK AO2 SLP286 T00940056 52014 $
KJLN 160153Z 34004KT 10SM CLR 11/05 A3036 RMK AO2 SLP281 T01060050 $
KJLN 160053Z COR 35005KT 10SM CLR 11/06 A3035 RMK AO2 SLP277 T01110056 $
KJLN 152353Z 36005KT 10SM CLR 12/05 A3033 RMK AO2 SLP272 T01220050 10178 20122 53002 $
KJLN 152253Z 33010KT 10SM CLR 16/04 A3033 RMK AO2 SLP269 T01560039 $
KJLN 152153Z 33009G17KT 10SM CLR 17/04 A3032 RMK AO2 SLP265 T01720044 $